Detall de PIREP

Printer-friendly versionPDF version

[2012/05/28 09:04:00]
Flight IATA:CT3234
Pilot Number:042
Company ICAO:CAT
Aircraft Type:MD11/E
PAX:250
Aircraft Registration:PAX
Departing Airport: LEPA
Destination Airport: LFPG
Alternate Airport:EHRD
Online: VATSIM
Route:GALAT UN861 OKABI UN861 FISTO UY156 FOUCO UT181 POI UT182 PEPAX/N0440F280 UT182 KEPER
Flight Level:F340
No Slew and time accel
No pause
Crash detect
Detect pilot in Cockpit between each 30 and 45 minutes
09:04 Zero fuel Weight: 430000 Lbs, Fuel Weight: 17332 Lbs
09:04 VATSIM:LEPA 280730Z VRB02KT 9999 FEW035 22/15 Q1015 NOSIG
09:04 VATSIM:LFPG 280830Z 32007KT 290V350 CAVOK 19/12 Q1018 NOSIG
09:04 VOICE CATALONIAN
09:19 Parking Brakes off
09:28 Take-off
09:28 Take off Weight: 519315 Lbs
09:28 Wind: 053º @ 004 Knots Heading: 238º
09:28 POS N39º 33´ 06´´ E002º 43´ 13´´
09:28 Flaps:4 at 188 Knots
09:28 Gear Up: 186 Knots
09:29 Flaps:3 at 170 Knots
09:29 Flaps:4 at 170 Knots
09:29 Flaps:3 at 171 Knots
09:29 Flaps:2 at 173 Knots
09:29 Flaps:1 at 173 Knots
09:30 Flaps:0 at 244 Knots
09:43 Wind:045º@004 Knots Heading: 350º Ground Speed: 487 Knots Altitude 29311 ft
09:46 TOC
09:46 Fuel Weight: 77770 Lb
09:58 Wind:303º@023 Knots Heading: 351º Ground Speed: 465 Knots Altitude 34048 ft
10:13 Wind:315º@014 Knots Heading: 343º Ground Speed: 467 Knots Altitude 34087 ft
10:28 Wind:000º@028 Knots Heading: 351º Ground Speed: 450 Knots Altitude 34140 ft
10:38 TOD
10:38 Fuel Weight: 63273 Lb
10:43 Wind:319º@020 Knots Heading: 032º Ground Speed: 398 Knots Altitude 24665 ft
10:55 Flaps:1 at 247 Knots
10:55 Flaps:2 at 247 Knots
10:56 Flaps:3 at 245 Knots
10:56 Flaps:1 at 244 Knots
10:56 Flaps:3 at 243 Knots
10:57 Flaps:4 at 190 Knots
10:57 Flaps:3 at 190 Knots
10:57 Flaps:4 at 189 Knots
10:57 Flaps:5 at 189 Knots
10:57 Flaps:6 at 189 Knots
10:58 Wind:331º@013 Knots Heading: 059º Ground Speed: 194 Knots Altitude 8149 ft
11:12 Gear Down: 183 Knots
11:12 Flaps:7 at 183 Knots
11:13 Wind:326º@006 Knots Heading: 270º Ground Speed: 184 Knots Altitude 2906 ft
11:13 Flaps:8 at 178 Knots
11:13 Flaps:7 at 178 Knots
11:13 Flaps:8 at 174 Knots
11:15 TouchDown:Rate -154 ft/min Speed: 159 Knots
11:16 VATSIM:LFPG 281100Z 32006KT 270V360 CAVOK 23/14 Q1018 NOSIG
11:16 Land
11:16 Wind:333º@005 Knots
11:16 Heading: 265º
11:16 Flight Duration: 01:48
11:16 Landing Weight: 482830 Lbs
11:16 POS N49º 01´ 18´´ E002º 32´ 10´´
11:25 Parking brakes on
11:25 Block to Block Duration: 02:06
11:25 Final Fuel: 51567 Lbls
11:25 Spent Fuel: 878673124 Lbls
11:25 Flight Length: 651 NM
11:25 TOD Land Length: 128 NM

Exportar CSV

Powered by Drupal - Modified by Danger4k